Jussiape, Brazil
Current Conditions -  °F | °C
As of 5:24 AM on Saturday 29 Nov 2014 (Local Time) from SBQV Reporting Station
Scattered Clouds Scattered Clouds  
Wind Chill: 64°   Ceiling: Unl
Heat Index: 64°   Visibility: 4mi
Dew Point: 64°   Wind: 7mph
Humidity: 100%   Direction: 100°E
Pressure: 30.06"   Gusts: NA
Location:  13.51°S, 41.62°W
Report Text: SBQV 290824Z 10006KT 6000 SCT005 18/18 Q1018
Loading
Personal Weather Stations






























Interactive Weather Map New forecast layout! Learn more

10-Day Weather Forecast

Advertisements
Track Severe Weather on mobile